No particular awareness of the weather is required.    There are no Weather-warnings

Kopaida air sports center. The private airport (CTAF) Kopaida (ZZZZ) located near Athens southwest of Castle village in Voiotia,
just one hour from leaving the National Road Athens - Lamia of Kifissia. The exact location of the airport is N 38 ° 27.41 'and E 023 ° 08.18'.



Kopaida NW more information Kopaida NW


Agios Dimitrios more information Agios Dimitrios


Kopaida live view NE

Athens SkydiveBecome a Skydiver

Spot fly AviationSpot Flight Academy



Weather Underground History page Text

Daily Summary for February 18, 2018 Units:  Metric    English   Both
« Previous Day
Next Day »
Daily Weekly Monthly Yearly Custom
  Current: High: Low: Average:
Temperature: -11.3 °C -17.8 °C -17.6 °C -15.3 °C
Dew Point: -13.5 °C -17.8 °C -18 °C -15.9 °C
Humidity: 77 % Humidity % 77 % 92 %
Wind Speed: 13.7 km/h 0 km/h 0 km/h 2.6 km/h
Wind Gust: 20.9 km/h 0 km/h - -
Wind:West - - SW
Pressure: 34496.6 hPa 0 hPa 34496.6 hPa -
Precipitation: 0 mm      
Historical Graphs
 
 
Tabular Data for February 18, 2018
Time Temperature Dew Point Pressure Wind Wind Speed Wind Gust Humidity Rainfall Rate (Hourly)
-17.8 °C -17.8 °C 0 hPa Calm     Humidity % 0 mm
00:03 -15.6 °C -16.2 °C 34635.4 hPa Calm     93 % 0 mm
00:08 -15.6 °C -16.2 °C 34625.2 hPa Calm     93 % 0 mm
00:13 -15.6 °C -16.2 °C 34625.2 hPa Calm     93 % 0 mm
00:18 -15.4 °C -15.9 °C 34625.2 hPa Calm     94 % 0 mm
00:23 -15.4 °C -15.9 °C 34635.4 hPa Calm     94 % 0 mm
00:28 -15.4 °C -15.9 °C 34625.2 hPa Calm     94 % 0 mm
00:33 -15.5 °C -16.1 °C 34625.2 hPa Calm     93 % 0 mm
00:38 -15.4 °C -15.9 °C 34625.2 hPa Calm     94 % 0 mm
00:43 -15.4 °C -15.9 °C 34625.2 hPa Calm     94 % 0 mm
00:48 -15.4 °C -15.9 °C 34625.2 hPa Calm     94 % 0 mm
00:53 -15.5 °C -16.1 °C 34635.4 hPa Calm     93 % 0 mm
00:58 -15.8 °C -16.4 °C 34625.2 hPa Calm     92 % 0 mm
01:03 -16.2 °C -16.9 °C 34635.4 hPa South 8.9 km/h 9 km/h 92 % 0 mm
01:08 -16.4 °C -17.1 °C 34635.4 hPa South 1.6 km/h 5.1 km/h 92 % 0 mm
01:13 -16.3 °C -16.7 °C 34635.4 hPa Calm     95 % 0 mm
01:18 -16.3 °C -16.8 °C 34635.4 hPa Calm     94 % 0 mm
01:23 -16.3 °C -16.8 °C 34635.4 hPa Calm     94 % 0 mm
01:28 -16.5 °C -17.1 °C 34635.4 hPa Calm     93 % 0 mm
01:33 -16.6 °C -17.1 °C 34635.4 hPa Calm     94 % 0 mm
01:38 -16.4 °C -16.9 °C 34635.4 hPa Calm     94 % 0 mm
01:43 -16.1 °C -16.5 °C 34635.4 hPa Calm     95 % 0 mm
01:48 -15.9 °C -16.3 °C 34635.4 hPa Calm     95 % 0 mm
01:53 -15.8 °C -16.2 °C 34635.4 hPa Calm     95 % 0 mm
01:58 -15.8 °C -16.2 °C 34635.4 hPa SW 0.8 km/h 7.7 km/h 95 % 0 mm
02:03 -15.8 °C -16.2 °C 34635.4 hPa SSW 4.3 km/h 6 km/h 95 % 0 mm
02:08 -15.8 °C -16.2 °C 34635.4 hPa South 4.2 km/h 6 km/h 95 % 0 mm
02:13 -16.1 °C -16.6 °C 34635.4 hPa SSE 2.6 km/h 6 km/h 94 % 0 mm
02:18 -16.2 °C -16.7 °C 34635.4 hPa SE 5.1 km/h 6 km/h 94 % 0 mm
02:23 -16.3 °C -16.8 °C 34635.4 hPa SE 5.1 km/h 6 km/h 94 % 0 mm
02:28 -16.1 °C -16.5 °C 34635.4 hPa SE 5.1 km/h 6 km/h 95 % 0 mm
02:33 -15.9 °C -16.3 °C 34635.4 hPa SE 7.7 km/h 9 km/h 95 % 0 mm
02:38 -16 °C -16.4 °C 34625.2 hPa SSE 7.7 km/h 9 km/h 95 % 0 mm
02:43 -16.1 °C -16.5 °C 34625.2 hPa SSE 5.1 km/h 6 km/h 95 % 0 mm
02:48 -16.1 °C -16.6 °C 34625.2 hPa SSE 5.1 km/h 6 km/h 94 % 0 mm
02:53 -16.1 °C -16.4 °C 34625.2 hPa SSE 2.6 km/h 3.1 km/h 95 % 0 mm
02:58 -16.1 °C -16.5 °C 34625.2 hPa SSW 4.2 km/h 6 km/h 95 % 0 mm
03:03 -16.4 °C -17 °C 34625.2 hPa WSW 1.6 km/h 5.1 km/h 93 % 0 mm
03:08 -16.6 °C -17.1 °C 34625.2 hPa WSW 4.2 km/h 6 km/h 94 % 0 mm
03:13 -16.5 °C -16.9 °C 34625.2 hPa WSW 2.6 km/h 3.1 km/h 95 % 0 mm
03:18 -16.4 °C -16.8 °C 34611.7 hPa Calm     95 % 0 mm
03:23 -16.3 °C -16.7 °C 34625.2 hPa Calm     95 % 0 mm
03:28 -16.8 °C -17.4 °C 34611.7 hPa Calm     93 % 0 mm
03:33 -17 °C -17.4 °C 34611.7 hPa ENE 1.3 km/h 3.1 km/h 94 % 0 mm
03:38 -17 °C -17.4 °C 34611.7 hPa ENE 5.1 km/h 6 km/h 95 % 0 mm
03:43 -17.1 °C -17.6 °C 34611.7 hPa Calm     94 % 0 mm
03:48 -17.1 °C -17.5 °C 34611.7 hPa Calm     95 % 0 mm
03:53 -17.2 °C -17.7 °C 34611.7 hPa Calm     94 % 0 mm
03:58 -17.2 °C -17.6 °C 34611.7 hPa Calm     95 % 0 mm
04:03 -17.2 °C -17.6 °C 34611.7 hPa Calm     95 % 0 mm
04:08 -17.3 °C -17.8 °C 34601.5 hPa NE 2.6 km/h 6 km/h 94 % 0 mm
04:13 -17.4 °C -17.8 °C 34601.5 hPa Calm     95 % 0 mm
04:18 -17.3 °C -17.7 °C 34601.5 hPa Calm     95 % 0 mm
04:23 -17.3 °C -17.7 °C 34601.5 hPa Calm     95 % 0 mm
04:28 -17.2 °C -17.6 °C 34601.5 hPa Calm   3.1 km/h 95 % 0 mm
04:33 -17.3 °C -17.7 °C 34601.5 hPa Calm     95 % 0 mm
04:38 -17.3 °C -17.7 °C 34601.5 hPa Calm     95 % 0 mm
04:43 -17.4 °C -17.8 °C 34601.5 hPa Calm     95 % 0 mm
04:48 -17.6 °C -17.9 °C 34601.5 hPa Calm   3.1 km/h 95 % 0 mm
04:53 -17.6 °C -18 °C 34601.5 hPa Calm     95 % 0 mm
04:58 -17.4 °C -17.8 °C 34601.5 hPa Calm     95 % 0 mm
05:03 -17.3 °C -17.7 °C 34591.4 hPa Calm     95 % 0 mm
05:08 -17.2 °C -17.6 °C 34591.4 hPa Calm     95 % 0 mm
05:13 -17.2 °C -17.6 °C 34591.4 hPa Calm     95 % 0 mm
05:18 -17.3 °C -17.7 °C 34591.4 hPa Calm     95 % 0 mm
05:23 -17.4 °C -17.8 °C 34591.4 hPa Calm     95 % 0 mm
05:28 -17.4 °C -17.8 °C 34591.4 hPa Calm     95 % 0 mm
05:33 -17.4 °C -17.8 °C 34591.4 hPa Calm     95 % 0 mm
05:38 -17.3 °C -17.7 °C 34591.4 hPa Calm     95 % 0 mm
05:43 -17.3 °C -17.7 °C 34601.5 hPa Calm     95 % 0 mm
05:48 -17.2 °C -17.6 °C 34601.5 hPa SSE 7.2 km/h 9 km/h 95 % 0 mm
05:53 -17.1 °C -17.4 °C 34601.5 hPa SSE 1.6 km/h 6 km/h 95 % 0 mm
05:58 -16.9 °C -17.3 °C 34601.5 hPa Calm     95 % 0 mm
06:03 -16.8 °C -17.2 °C 34601.5 hPa Calm     95 % 0 mm
06:08 -16.7 °C -17.1 °C 34601.5 hPa Calm     95 % 0 mm
06:13 -16.6 °C -17 °C 34601.5 hPa Calm     95 % 0 mm
06:18 -16.5 °C -16.8 °C 34601.5 hPa Calm     96 % 0 mm
06:23 -16.4 °C -16.7 °C 34601.5 hPa Calm     96 % 0 mm
06:28 -16.3 °C -16.7 °C 34601.5 hPa SSE 3.4 km/h 5.1 km/h 95 % 0 mm
06:33 -16.3 °C -16.7 °C 34601.5 hPa SSE 0.8 km/h 6 km/h 95 % 0 mm
06:38 -16.3 °C -16.7 °C 34591.4 hPa Calm     95 % 0 mm
06:43 -16.2 °C -16.6 °C 34591.4 hPa SSE 0.5 km/h   95 % 0 mm
06:48 -16.2 °C -16.6 °C 34591.4 hPa Calm     95 % 0 mm
06:53 -16.2 °C -16.6 °C 34591.4 hPa Calm     95 % 0 mm
06:58 -16.2 °C -16.6 °C 34591.4 hPa Calm     95 % 0 mm
07:03 -16.2 °C -16.6 °C 34591.4 hPa Calm     95 % 0 mm
07:08 -16.2 °C -16.6 °C 34591.4 hPa Calm     95 % 0 mm
07:13 -16.2 °C -16.6 °C 34591.4 hPa Calm     95 % 0 mm
07:18 -16.1 °C -16.5 °C 34591.4 hPa Calm     95 % 0 mm
07:23 -16.2 °C -16.6 °C 34591.4 hPa Calm     95 % 0 mm
07:28 -16.3 °C -16.7 °C 34591.4 hPa Calm     95 % 0 mm
07:33 -16.2 °C -16.6 °C 34591.4 hPa Calm     95 % 0 mm
07:38 -16.2 °C -16.6 °C 34601.5 hPa Calm     95 % 0 mm
07:43 -16.2 °C -16.6 °C 34601.5 hPa Calm     95 % 0 mm
07:48 -16.2 °C -16.6 °C 34601.5 hPa Calm     95 % 0 mm
07:53 -16.1 °C -16.5 °C 34591.4 hPa Calm     95 % 0 mm
07:58 -16.1 °C -16.4 °C 34601.5 hPa Calm     95 % 0 mm
08:03 -16 °C -16.4 °C 34591.4 hPa Calm     95 % 0 mm
08:08 -15.9 °C -16.3 °C 34591.4 hPa East 2.9 km/h 6 km/h 95 % 0 mm
08:13 -15.9 °C -16.3 °C 34591.4 hPa Calm   3.1 km/h 95 % 0 mm
08:18 -15.9 °C -16.3 °C 34601.5 hPa SSE 1.6 km/h 3.1 km/h 95 % 0 mm
08:23 -15.8 °C -16.2 °C 34591.4 hPa Calm     95 % 0 mm
08:28 -15.8 °C -16.2 °C 34591.4 hPa Calm     95 % 0 mm
08:33 -15.7 °C -16.1 °C 34591.4 hPa Calm     95 % 0 mm
08:38 -15.7 °C -16.1 °C 34591.4 hPa Calm     95 % 0 mm
08:43 -15.6 °C -16 °C 34591.4 hPa Calm     95 % 0 mm
08:48 -15.5 °C -15.9 °C 34601.5 hPa Calm     95 % 0 mm
08:53 -15.4 °C -15.8 °C 34591.4 hPa Calm     95 % 0 mm
08:58 -15.3 °C -15.7 °C 34591.4 hPa Calm     95 % 0 mm
09:03 -15.2 °C -15.6 °C 34591.4 hPa Calm     95 % 0 mm
09:08 -15.1 °C -15.5 °C 34591.4 hPa Calm     95 % 0 mm
09:13 -15.1 °C -15.4 °C 34591.4 hPa Calm     95 % 0 mm
09:18 -15 °C -15.4 °C 34591.4 hPa Calm     95 % 0 mm
09:23 -14.9 °C -15.4 °C 34591.4 hPa Calm     95 % 0 mm
09:28 -14.9 °C -15.3 °C 34591.4 hPa Calm     95 % 0 mm
09:33 -14.9 °C -15.4 °C 34591.4 hPa SSE 0.3 km/h   94 % 0 mm
09:38 -14.9 °C -15.4 °C 34591.4 hPa Calm     94 % 0 mm
09:43 -14.9 °C -15.3 °C 34577.8 hPa Calm     95 % 0 mm
09:48 -14.8 °C -15.2 °C 34577.8 hPa Calm     95 % 0 mm
09:53 -14.8 °C -15.3 °C 34577.8 hPa Calm     94 % 0 mm
09:58 -14.7 °C -15.2 °C 34577.8 hPa Calm     94 % 0 mm
10:03 -14.7 °C -15.2 °C 34577.8 hPa WSW 1.8 km/h 7.7 km/h 94 % 0 mm
10:08 -14.6 °C -15.1 °C 34577.8 hPa SW 2.6 km/h 3.1 km/h 94 % 0 mm
10:13 -14.6 °C -15.1 °C 34577.8 hPa West 7.7 km/h 9 km/h 94 % 0 mm
10:18 -14.6 °C -15.1 °C 34577.8 hPa Calm   6 km/h 94 % 0 mm
10:23 -14.5 °C -14.9 °C 34577.8 hPa West 3.4 km/h 6 km/h 94 % 0 mm
10:28 -14.4 °C -14.9 °C 34577.8 hPa West 6.4 km/h 10.3 km/h 94 % 0 mm
10:33 -14.3 °C -14.8 °C 34577.8 hPa WSW 0.3 km/h 9 km/h 94 % 0 mm
10:38 -14.2 °C -14.7 °C 34577.8 hPa WSW 7.7 km/h 9 km/h 94 % 0 mm
10:43 -14.1 °C -14.6 °C 34577.8 hPa West 10.6 km/h 10.6 km/h 94 % 0 mm
10:48 -14 °C -14.5 °C 34577.8 hPa West 7.7 km/h 9 km/h 94 % 0 mm
10:53 -13.9 °C -14.4 °C 34577.8 hPa WSW 10.6 km/h 11.9 km/h 94 % 0 mm
10:58 -13.8 °C -14.3 °C 34567.7 hPa West 12.4 km/h 15 km/h 94 % 0 mm
11:03 -13.7 °C -14.3 °C 34567.7 hPa West 9.3 km/h 12.9 km/h 93 % 0 mm
11:08 -13.7 °C -14.3 °C 34567.7 hPa SW 7.2 km/h 9 km/h 93 % 0 mm
11:13 -13.6 °C -14.3 °C 34567.7 hPa SW 8.2 km/h 9 km/h 92 % 0 mm
11:18 -13.5 °C -14.1 °C 34567.7 hPa West 8.2 km/h 9 km/h 93 % 0 mm
11:23 -13.3 °C -13.9 °C 34567.7 hPa Calm     93 % 0 mm
11:29 -13.2 °C -13.9 °C 34554.1 hPa WSW 7.2 km/h 9 km/h 92 % 0 mm
11:34 -13.1 °C -13.9 °C 34554.1 hPa West 9.7 km/h 11.9 km/h 91 % 0 mm
11:39 -13.1 °C -13.9 °C 34567.7 hPa West 10.3 km/h 17.9 km/h 90 % 0 mm
11:43 -12.9 °C -13.9 °C 34554.1 hPa WNW 9.3 km/h 12.9 km/h 89 % 0 mm
11:48 -12.9 °C -14 °C 34554.1 hPa WNW 9.8 km/h 9.8 km/h 88 % 0 mm
11:53 -12.9 °C -14 °C 34554.1 hPa WSW 7.6 km/h 9 km/h 87 % 0 mm
11:59 -12.7 °C -13.9 °C 34544 hPa West 4.7 km/h 6 km/h 86 % 0 mm
12:04 -12.6 °C -13.8 °C 34544 hPa SSE 5 km/h 9 km/h 85 % 0 mm
12:09 -12.3 °C -13.7 °C 34544 hPa SSE 6.4 km/h 9 km/h 84 % 0 mm
12:14 -12.3 °C -13.9 °C 34544 hPa West 7.7 km/h 10.3 km/h 82 % 0 mm
12:19 -12.2 °C -13.8 °C 34544 hPa SSW 7.6 km/h 9 km/h 82 % 0 mm
12:24 -12.2 °C -13.9 °C 34544 hPa SSW 3.4 km/h 6 km/h 81 % 0 mm
12:29 -12.1 °C -13.8 °C 34544 hPa Calm     81 % 0 mm
12:34 -12.1 °C -14.1 °C 34533.8 hPa West 3.4 km/h 6 km/h 79 % 0 mm
12:39 -12.1 °C -13.8 °C 34533.8 hPa Calm     81 % 0 mm
12:44 -12.1 °C -13.8 °C 34520.3 hPa NW 3.9 km/h 9 km/h 81 % 0 mm
12:49 -12.1 °C -13.8 °C 34520.3 hPa WNW 1.6 km/h 6 km/h 81 % 0 mm
12:54 -12.1 °C -13.9 °C 34520.3 hPa NW 7.6 km/h 11.9 km/h 80 % 0 mm
12:59 -12.1 °C -13.9 °C 34520.3 hPa SW 8.5 km/h 12.9 km/h 80 % 0 mm
13:04 -11.9 °C -13.7 °C 34520.3 hPa West 10.3 km/h 11.9 km/h 81 % 0 mm
13:09 -11.9 °C -13.8 °C 34520.3 hPa WSW 8 km/h 12.9 km/h 80 % 0 mm
13:14 -12 °C -13.9 °C 34510.1 hPa West 5.5 km/h 11.9 km/h 79 % 0 mm
13:19 -11.9 °C -13.7 °C 34510.1 hPa SSW 10.9 km/h 15 km/h 80 % 0 mm
13:24 -11.8 °C -13.8 °C 34510.1 hPa NW 3.9 km/h 9 km/h 78 % 0 mm
13:29 -11.8 °C -13.8 °C 34510.1 hPa WNW 0.8 km/h 6 km/h 78 % 0 mm
13:34 -11.6 °C -13.6 °C 34496.6 hPa WNW 8.2 km/h 11.9 km/h 79 % 0 mm
13:39 -11.6 °C -13.7 °C 34496.6 hPa WSW 12.2 km/h 15.6 km/h 78 % 0 mm
13:44 -11.5 °C -13.6 °C 34496.6 hPa WSW 12.9 km/h 15 km/h 78 % 0 mm
13:49 -11.4 °C -13.6 °C 34496.6 hPa WNW 6 km/h 9 km/h 77 % 0 mm
13:54 -11.4 °C -13.6 °C 34496.6 hPa West 6.9 km/h 11.9 km/h 77 % 0 mm
13:59 -11.3 °C -13.5 °C 34496.6 hPa West 13.7 km/h 20.9 km/h 77 % 0 mm
Kopaida airport
Compliments of Weather Underground - 4.25 mb

Script developed by  Jim McMurry - jmcmurry@mwt.net Adapted for the template by  Wim van der Kuil - Leuven-Template.eu

You find our weather info also at:

UK Metoffice

European Weather Network

WeatherCloud

Weather Underground

AWEKAS

Citizen Weather Observer Program (CWOP)

HAMweather, WeatherForYou, PWS Weather

Equipment we use:

Weather-station
Wireless Vantage Pro2

Weather-program
Weather Display

Wireless Vantage Pro2

Weather Display


Never base important decisions on this or any weather information obtained from the Internet

Kopaida airport (ZZZZ) - CTAF frequency : 119.700 - Tanagra(LGTG) MATZ 120.250

Airport Phone +306977612200, +302268041170, Contact Mr. George Papadopoulos.